Terminal Aerodrome Forecast
Issued by NWS

Home | Current Version | Previous Version | Text Only | Print | Product List | Glossary On
Versions: 1 2 3 4 5 6 7 8 9 10 11 12 13 14
000
FTUS45 KTWC 241331 AAA
TAFOLS
TAF AMD
KOLS 241331Z 2414/2512 VRB03KT P6SM FEW250
     FM242000 24010G16KT P6SM SCT250
     FM250300 VRB04KT P6SM BKN250=

USA.gov is the U.S. government's official web portal to all federal, state and local government web resources and services.